Time;durP1;ratioP1;P1;durP2;ratioP2;P2;SDS_P1;SDS_P2;PMS_P1;PMS_P2;Temp;Humidity;BMP_temperature;BMP_pressure;BME280_temperature;BME280_humidity;BME280_pressure;Samples;Min_cycle;Max_cycle;Signal;HPM_P1;HPM_P2
2022/02/14 00:00:09;;;;;;;31.55;13.78;;;;;;;0.70;73.06;100778.03;1707864;83;25775;-77
2022/02/14 00:02:40;;;;;;;26.50;13.08;;;;;;;0.70;73.03;100774.55;1707037;83;27353;-77
2022/02/14 00:05:07;;;;;;;26.25;12.75;;;;;;;0.70;73.19;100776.70;1704764;83;26478;-77
2022/02/14 00:07:34;;;;;;;29.48;12.68;;;;;;;0.69;73.41;100773.70;1707082;83;25770;-77
2022/02/14 00:10:00;;;;;;;28.73;13.30;;;;;;;0.70;73.53;100770.59;1706909;83;26271;-77
2022/02/14 00:12:26;;;;;;;27.20;13.72;;;;;;;0.72;73.50;100772.63;1702228;83;25757;-78
2022/02/14 00:14:53;;;;;;;29.63;14.60;;;;;;;0.73;73.39;100767.69;1699856;83;27431;-78
2022/02/14 00:17:20;;;;;;;30.57;14.05;;;;;;;0.72;73.36;100769.52;1696611;83;25707;-78
2022/02/14 00:19:50;;;;;;;37.23;16.27;;;;;;;0.72;73.35;100768.20;1699205;83;25899;-78
2022/02/14 00:22:21;;;;;;;34.53;15.63;;;;;;;0.71;73.34;100766.98;1697269;83;26937;-77
2022/02/14 00:24:50;;;;;;;29.75;14.58;;;;;;;0.69;73.34;100760.98;1699263;83;25896;-78
2022/02/14 00:27:18;;;;;;;33.95;13.28;;;;;;;0.67;73.29;100757.63;1697494;83;28262;-78
2022/02/14 00:29:45;;;;;;;31.73;14.10;;;;;;;0.65;73.19;100760.88;1695783;83;25344;-77
2022/02/14 00:32:12;;;;;;;26.05;12.55;;;;;;;0.64;73.27;100765.30;1698051;83;25789;-78
2022/02/14 00:34:39;;;;;;;28.55;14.18;;;;;;;0.64;73.29;100762.66;1695386;83;25821;-77
2022/02/14 00:37:06;;;;;;;31.17;14.30;;;;;;;0.63;73.24;100756.20;1698848;83;26536;-78
2022/02/14 00:39:32;;;;;;;32.88;13.00;;;;;;;0.60;73.06;100763.86;1696995;83;27432;-77
2022/02/14 00:42:00;;;;;;;32.03;14.73;;;;;;;0.58;72.93;100764.93;1696395;83;25840;-77
2022/02/14 00:44:26;;;;;;;27.48;13.05;;;;;;;0.55;72.88;100764.72;1698846;83;25754;-77
2022/02/14 00:46:52;;;;;;;30.80;14.00;;;;;;;0.52;72.85;100761.46;1696397;83;26222;-77
2022/02/14 00:49:18;;;;;;;25.88;12.98;;;;;;;0.50;72.85;100762.06;1697081;83;25876;-78
2022/02/14 00:51:44;;;;;;;26.85;13.75;;;;;;;0.47;72.84;100762.31;1698270;83;27441;-78
2022/02/14 00:54:11;;;;;;;29.07;14.13;;;;;;;0.46;72.75;100765.89;1696093;83;26074;-77
2022/02/14 00:56:37;;;;;;;30.32;13.43;;;;;;;0.45;72.70;100772.95;1697279;83;25854;-76
2022/02/14 00:59:04;;;;;;;29.67;13.15;;;;;;;0.44;72.59;100772.61;1698819;83;26192;-78
2022/02/14 01:01:30;;;;;;;28.00;13.53;;;;;;;0.44;72.68;100769.97;1695901;83;26573;-77
2022/02/14 01:03:57;;;;;;;29.72;14.43;;;;;;;0.43;72.64;100766.97;1697380;83;27499;-77
2022/02/14 01:06:26;;;;;;;30.52;13.15;;;;;;;0.44;72.60;100762.54;1698887;83;26410;-77
2022/02/14 01:08:54;;;;;;;32.85;14.93;;;;;;;0.43;72.47;100758.21;1696303;83;25803;-77
2022/02/14 01:11:22;;;;;;;30.37;12.70;;;;;;;0.41;72.44;100759.66;1696176;83;25793;-77
2022/02/14 01:13:49;;;;;;;30.27;13.13;;;;;;;0.37;72.31;100759.53;1698543;83;25726;-77
2022/02/14 01:16:16;;;;;;;25.85;13.22;;;;;;;0.35;72.36;100750.91;1696918;83;27492;-77
2022/02/14 01:18:42;;;;;;;25.68;13.22;;;;;;;0.36;72.42;100742.06;1696499;83;25762;-77
2022/02/14 01:21:08;;;;;;;23.07;11.70;;;;;;;0.35;72.54;100737.73;1698788;83;26444;-78
2022/02/14 01:23:34;;;;;;;34.80;12.65;;;;;;;0.34;72.39;100741.82;1696591;83;25854;-77
2022/02/14 01:26:02;;;;;;;28.02;13.18;;;;;;;0.33;72.42;100742.77;1696949;82;25743;-77
2022/02/14 01:28:28;;;;;;;28.75;13.45;;;;;;;0.32;72.49;100749.81;1698641;83;27519;-77
2022/02/14 01:30:54;;;;;;;31.23;13.45;;;;;;;0.31;72.48;100743.36;1698765;83;25787;-78
2022/02/14 01:33:20;;;;;;;24.95;11.80;;;;;;;0.32;72.57;100740.59;1697704;83;26489;-77
2022/02/14 01:35:46;;;;;;;29.00;11.63;;;;;;;0.30;72.47;100739.88;1695830;83;25850;-78
2022/02/14 01:38:13;;;;;;;22.37;11.22;;;;;;;0.30;72.45;100736.43;1699016;83;25903;-77
2022/02/14 01:40:39;;;;;;;25.88;11.65;;;;;;;0.31;72.44;100731.50;1697691;83;27453;-77
2022/02/14 01:43:06;;;;;;;22.98;11.08;;;;;;;0.32;72.52;100730.06;1695514;83;26756;-77
2022/02/14 01:45:32;;;;;;;24.82;11.65;;;;;;;0.30;72.33;100723.26;1698708;83;25875;-77
2022/02/14 01:47:58;;;;;;;22.65;11.43;;;;;;;0.29;72.28;100725.05;1699195;83;26239;-77
2022/02/14 01:50:24;;;;;;;22.42;11.22;;;;;;;0.27;72.23;100723.48;1698401;83;25859;-77
2022/02/14 01:52:54;;;;;;;23.57;11.20;;;;;;;0.25;72.26;100718.34;1695770;83;27431;-77
2022/02/14 01:55:22;;;;;;;26.25;11.45;;;;;;;0.24;72.14;100717.97;1696708;83;25815;-78
2022/02/14 01:57:50;;;;;;;26.48;11.10;;;;;;;0.23;72.18;100716.77;1698968;83;26489;-77
2022/02/14 02:00:19;;;;;;;25.45;10.90;;;;;;;0.21;72.14;100711.63;1697207;83;25829;-78
2022/02/14 02:02:46;;;;;;;22.05;11.03;;;;;;;0.20;72.15;100712.58;1696180;83;25853;-78
2022/02/14 02:05:12;;;;;;;24.63;11.15;;;;;;;0.21;71.96;100720.01;1698848;83;27473;-77
2022/02/14 02:07:39;;;;;;;23.45;11.15;;;;;;;0.16;71.83;100712.45;1697791;83;25836;-77
2022/02/14 02:10:09;;;;;;;29.35;12.23;;;;;;;0.15;71.69;100717.84;1696095;83;25805;-77
2022/02/14 02:12:37;;;;;;;24.30;10.70;;;;;;;0.14;71.69;100720.11;1697200;83;26276;-77
2022/02/14 02:15:06;;;;;;;28.62;11.65;;;;;;;0.13;71.67;100713.99;1705492;83;25936;-76
2022/02/14 02:17:38;;;;;;;24.72;11.57;;;;;;;0.13;71.50;100710.55;1707222;83;27478;-77
2022/02/14 02:20:08;;;;;;;22.00;11.78;;;;;;;0.10;71.38;100717.35;1707319;83;25934;-78
2022/02/14 02:22:35;;;;;;;30.20;12.37;;;;;;;0.09;71.29;100715.19;1708598;83;25802;-78
2022/02/14 02:25:01;;;;;;;25.52;11.85;;;;;;;0.09;71.31;100724.87;1703896;83;26479;-77
2022/02/14 02:27:28;;;;;;;25.12;11.70;;;;;;;0.08;71.29;100720.11;1704660;83;25750;-77
2022/02/14 02:30:01;;;;;;;28.25;13.93;;;;;;;0.10;71.49;100716.03;1704954;83;27435;-77
2022/02/14 02:32:30;;;;;;;28.67;12.28;;;;;;;0.13;71.69;100707.91;1705578;83;25808;-77
2022/02/14 02:34:57;;;;;;;26.77;13.43;;;;;;;0.13;71.67;100708.73;1705586;83;25796;-78
2022/02/14 02:37:23;;;;;;;29.25;13.75;;;;;;;0.13;71.81;100707.91;1706606;83;25822;-78
2022/02/14 02:39:50;;;;;;;29.30;13.22;;;;;;;0.12;71.83;100701.80;1707819;83;25754;-77
2022/02/14 02:42:21;;;;;;;30.82;13.83;;;;;;;0.11;71.95;100697.98;1704780;83;27632;-79
2022/02/14 02:44:48;;;;;;;29.70;13.60;;;;;;;0.10;72.02;100701.08;1705420;83;25445;-77
2022/02/14 02:47:17;;;;;;;26.50;12.03;;;;;;;0.10;72.19;100699.77;1708161;83;25791;-77
2022/02/14 02:49:44;;;;;;;30.50;13.50;;;;;;;0.11;72.23;100699.30;1706163;83;25812;-78
2022/02/14 02:52:15;;;;;;;29.98;13.48;;;;;;;0.12;72.32;100703.12;1705029;83;26492;-77
2022/02/14 02:54:42;;;;;;;27.65;13.60;;;;;;;0.13;72.25;100696.06;1702203;83;27467;-77
2022/02/14 02:57:08;;;;;;;27.70;13.78;;;;;;;0.12;72.34;100694.37;1708412;83;25843;-77
2022/02/14 02:59:35;;;;;;;26.30;13.32;;;;;;;0.13;72.27;100694.74;1708010;83;26446;-77
2022/02/14 03:02:06;;;;;;;33.10;13.65;;;;;;;0.12;72.34;100693.05;1705976;83;26033;-77
2022/02/14 03:04:34;;;;;;;31.17;14.85;;;;;;;0.12;72.56;100691.27;1704691;83;25947;-78
2022/02/14 03:07:01;;;;;;;26.52;13.80;;;;;;;0.13;72.50;100692.11;1707538;83;27527;-77
2022/02/14 03:09:28;;;;;;;27.85;15.05;;;;;;;0.13;72.53;100678.94;1706661;83;25895;-77
2022/02/14 03:11:54;;;;;;;29.92;13.75;;;;;;;0.14;72.57;100681.92;1704512;83;26503;-77
2022/02/14 03:14:21;;;;;;;32.73;13.75;;;;;;;0.16;72.42;100679.53;1708687;83;26820;-77
2022/02/14 03:16:47;;;;;;;32.05;15.10;;;;;;;0.18;72.31;100677.62;1705728;83;25734;-77
2022/02/14 03:19:14;;;;;;;28.32;13.48;;;;;;;0.20;72.14;100671.75;1708325;83;27464;-77
2022/02/14 03:21:41;;;;;;;32.90;14.50;;;;;;;0.17;71.76;100673.29;1706244;83;25751;-78
2022/02/14 03:24:07;;;;;;;29.77;14.33;;;;;;;0.16;71.88;100674.73;1706508;83;25752;-78
2022/02/14 03:26:33;;;;;;;28.98;14.68;;;;;;;0.16;71.85;100676.05;1708540;83;25637;-78
2022/02/14 03:29:00;;;;;;;33.88;14.63;;;;;;;0.17;71.93;100676.42;1706414;83;25809;-77
2022/02/14 03:31:26;;;;;;;28.73;14.33;;;;;;;0.20;71.95;100670.91;1706217;83;28192;-77
2022/02/14 03:33:53;;;;;;;25.72;12.70;;;;;;;0.18;71.85;100672.34;1707949;83;25895;-77
2022/02/14 03:36:21;;;;;;;31.33;13.93;;;;;;;0.17;71.77;100669.34;1705822;83;25839;-78
2022/02/14 03:38:49;;;;;;;27.98;13.80;;;;;;;0.17;71.71;100675.11;1706408;83;25859;-78
2022/02/14 03:41:15;;;;;;;28.77;13.30;;;;;;;0.17;71.76;100676.42;1708230;83;25820;-77
2022/02/14 03:43:41;;;;;;;32.17;14.98;;;;;;;0.16;71.73;100672.10;1708129;81;27461;-78
2022/02/14 03:46:08;;;;;;;29.00;14.73;;;;;;;0.16;71.73;100674.27;1707380;83;25935;-78
2022/02/14 03:48:34;;;;;;;26.62;13.65;;;;;;;0.15;71.82;100675.71;1705216;83;25918;-77
2022/02/14 03:51:00;;;;;;;28.30;14.47;;;;;;;0.15;71.86;100673.08;1707519;83;26522;-77
2022/02/14 03:53:28;;;;;;;27.27;13.90;;;;;;;0.13;71.89;100679.75;1707114;83;25784;-77
2022/02/14 03:55:54;;;;;;;29.57;14.43;;;;;;;0.12;71.87;100673.30;1705415;83;26937;-77
2022/02/14 03:58:20;;;;;;;31.25;14.50;;;;;;;0.08;71.94;100677.13;1707870;83;26238;-77
2022/02/14 04:00:47;;;;;;;34.40;15.20;;;;;;;0.05;72.11;100672.94;1704194;83;26276;-78
2022/02/14 04:03:13;;;;;;;32.78;14.95;;;;;;;0.04;71.96;100662.53;1707199;83;26303;-77
2022/02/14 04:05:39;;;;;;;31.05;14.55;;;;;;;-0.03;71.93;100663.00;1709317;83;25762;-77
2022/02/14 04:08:05;;;;;;;30.75;15.28;;;;;;;-0.08;72.03;100656.39;1706915;83;26975;-77
2022/02/14 04:10:32;;;;;;;30.10;14.40;;;;;;;-0.13;72.11;100655.93;1708265;83;26457;-77
2022/02/14 04:12:58;;;;;;;32.55;15.05;;;;;;;-0.16;72.16;100649.57;1705304;83;25826;-77
2022/02/14 04:15:24;;;;;;;32.08;14.65;;;;;;;-0.17;72.34;100656.63;1706235;83;25819;-78
2022/02/14 04:17:50;;;;;;;31.50;16.20;;;;;;;-0.17;72.48;100657.13;1707307;83;26078;-77
2022/02/14 04:20:17;;;;;;;34.83;17.30;;;;;;;-0.18;72.46;100653.64;1707535;83;28233;-77
2022/02/14 04:22:44;;;;;;;36.60;17.02;;;;;;;-0.19;72.59;100648.00;1705659;83;25831;-79
2022/02/14 04:25:13;;;;;;;32.50;15.43;;;;;;;-0.18;72.73;100649.70;1705033;83;25832;-77
2022/02/14 04:27:41;;;;;;;33.83;15.48;;;;;;;-0.18;72.80;100653.64;1707522;83;26435;-77
2022/02/14 04:30:10;;;;;;;26.35;14.13;;;;;;;-0.18;72.80;100641.80;1713409;83;25946;-77
2022/02/14 04:32:38;;;;;;;32.75;16.15;;;;;;;-0.17;72.84;100642.14;1701026;83;27555;-77
2022/02/14 04:35:05;;;;;;;34.95;17.60;;;;;;;-0.18;72.83;100646.22;1708006;83;25820;-78
2022/02/14 04:37:31;;;;;;;29.42;15.60;;;;;;;-0.19;72.87;100647.16;1705137;83;25363;-77
2022/02/14 04:39:58;;;;;;;38.80;16.62;;;;;;;-0.18;72.92;100646.22;1707795;83;25865;-77
2022/02/14 04:42:24;;;;;;;32.73;16.67;;;;;;;-0.18;73.02;100644.44;1705719;83;25816;-77
2022/02/14 04:44:50;;;;;;;35.43;16.30;;;;;;;-0.19;73.05;100640.11;1706211;83;27466;-77
2022/02/14 04:47:16;;;;;;;32.30;16.07;;;;;;;-0.18;73.16;100642.27;1705713;83;25881;-78
2022/02/14 04:49:43;;;;;;;33.20;15.00;;;;;;;-0.17;73.21;100640.02;1701457;83;25743;-77
2022/02/14 04:52:10;;;;;;;38.70;15.75;;;;;;;-0.18;73.20;100644.44;1699000;83;26259;-77
2022/02/14 04:54:36;;;;;;;33.50;16.77;;;;;;;-0.20;73.07;100646.34;1701471;83;25929;-77
2022/02/14 04:57:03;;;;;;;38.53;17.02;;;;;;;-0.19;73.17;100645.84;1700782;83;27527;-78
2022/02/14 04:59:29;;;;;;;33.30;16.05;;;;;;;-0.19;73.19;100644.53;1710509;83;25795;-77
2022/02/14 05:01:55;;;;;;;33.05;16.23;;;;;;;-0.17;73.22;100646.59;1713162;83;26089;-77
2022/02/14 05:04:22;;;;;;;37.33;16.82;;;;;;;-0.18;73.30;100645.75;1717849;83;25892;-77
2022/02/14 05:06:49;;;;;;;31.50;16.37;;;;;;;-0.17;73.45;100641.33;1706548;83;25799;-78
2022/02/14 05:09:15;;;;;;;32.30;16.93;;;;;;;-0.18;73.28;100639.64;1712745;81;27541;-78
2022/02/14 05:11:42;;;;;;;30.68;16.62;;;;;;;-0.20;73.46;100638.45;1713226;83;26122;-78
2022/02/14 05:14:08;;;;;;;31.70;16.57;;;;;;;-0.20;73.51;100643.72;1702081;83;26370;-77
2022/02/14 05:16:34;;;;;;;34.78;16.95;;;;;;;-0.22;73.67;100644.31;1697034;83;25846;-77
2022/02/14 05:19:01;;;;;;;38.38;17.65;;;;;;;-0.23;73.75;100647.04;1699727;83;26566;-77
2022/02/14 05:21:27;;;;;;;36.48;17.90;;;;;;;-0.22;73.82;100654.84;1697009;83;27432;-76
2022/02/14 05:23:55;;;;;;;37.33;15.88;;;;;;;-0.20;73.92;100650.30;1707812;83;25753;-77
2022/02/14 05:26:21;;;;;;;34.85;17.45;;;;;;;-0.19;73.90;100655.05;1703733;83;26563;-77
2022/02/14 05:28:49;;;;;;;38.67;18.50;;;;;;;-0.21;73.87;100650.39;1704333;83;26483;-79
2022/02/14 05:31:16;;;;;;;37.45;17.55;;;;;;;-0.21;73.99;100645.12;1706320;82;26462;-77
2022/02/14 05:33:42;;;;;;;36.90;17.80;;;;;;;-0.20;73.87;100651.61;1703805;82;27521;-77
2022/02/14 05:36:08;;;;;;;32.05;16.70;;;;;;;-0.20;73.97;100663.45;1707659;82;25930;-77
2022/02/14 05:38:34;;;;;;;34.63;15.78;;;;;;;-0.18;73.97;100654.97;1706307;82;26009;-77
2022/02/14 05:41:01;;;;;;;35.92;16.95;;;;;;;-0.18;73.94;100657.59;1703687;82;25942;-78
2022/02/14 05:43:27;;;;;;;33.38;15.95;;;;;;;-0.16;73.95;100660.95;1706459;82;25871;-77
2022/02/14 05:45:53;;;;;;;38.25;17.90;;;;;;;-0.14;73.92;100656.88;1706606;82;27640;-77
2022/02/14 05:48:26;;;;;;;39.48;18.98;;;;;;;-0.13;73.99;100650.66;1705175;82;25927;-78
2022/02/14 05:50:48;;;;;;;36.35;17.87;;;;;;;-0.12;74.11;100650.53;1700231;82;25812;-77
2022/02/14 05:53:14;;;;;;;38.38;18.55;;;;;;;-0.10;74.04;100653.05;1704242;82;26020;-78
2022/02/14 05:55:40;;;;;;;40.65;17.45;;;;;;;-0.11;73.91;100649.56;1704926;82;25781;-77
2022/02/14 05:58:07;;;;;;;34.45;17.05;;;;;;;-0.12;73.67;100650.53;1701939;82;28160;-76
2022/02/14 06:00:33;;;;;;;34.98;16.60;;;;;;;-0.11;73.66;100650.87;1696335;83;26124;-76
2022/02/14 06:02:59;;;;;;;30.62;15.80;;;;;;;-0.09;73.69;100657.37;1696761;83;25773;-77
2022/02/14 06:05:25;;;;;;;37.83;16.73;;;;;;;-0.08;73.59;100659.03;1696575;83;25960;-76
2022/02/14 06:07:51;;;;;;;32.20;15.65;;;;;;;-0.06;73.68;100665.86;1695298;83;25918;-77
2022/02/14 06:10:18;;;;;;;35.70;16.80;;;;;;;-0.05;73.58;100663.60;1695868;83;27479;-76
2022/02/14 06:12:44;;;;;;;36.58;17.50;;;;;;;-0.01;73.59;100668.98;1696511;83;25943;-76
2022/02/14 06:15:11;;;;;;;34.70;16.77;;;;;;;0.02;73.59;100664.44;1701541;83;26072;-76
2022/02/14 06:17:37;;;;;;;38.00;17.95;;;;;;;0.04;73.68;100659.89;1703562;83;26161;-76
2022/02/14 06:20:04;;;;;;;30.50;16.02;;;;;;;0.08;73.73;100662.64;1706258;83;25973;-76
2022/02/14 06:22:30;;;;;;;29.85;16.67;;;;;;;0.11;73.83;100665.05;1706792;83;27537;-76
2022/02/14 06:24:57;;;;;;;39.15;19.82;;;;;;;0.13;73.72;100660.51;1704687;83;25794;-76
2022/02/14 06:27:23;;;;;;;40.52;19.82;;;;;;;0.16;73.78;100662.41;1707105;83;25822;-76
2022/02/14 06:29:49;;;;;;;40.78;16.95;;;;;;;0.19;73.72;100659.55;1706762;83;25856;-77
2022/02/14 06:32:16;;;;;;;37.53;17.75;;;;;;;0.22;73.78;100655.34;1704996;83;25851;-77
2022/02/14 06:34:42;;;;;;;36.40;18.95;;;;;;;0.25;73.78;100659.54;1706703;83;27455;-76
2022/02/14 06:37:09;;;;;;;36.23;19.07;;;;;;;0.25;73.82;100646.38;1701687;83;25905;-76
2022/02/14 06:39:35;;;;;;;43.58;19.73;;;;;;;0.27;73.82;100646.61;1695715;83;25824;-76
2022/02/14 06:42:01;;;;;;;41.25;20.45;;;;;;;0.31;73.80;100646.73;1699416;83;26622;-76
2022/02/14 06:44:28;;;;;;;41.45;19.12;;;;;;;0.33;73.83;100647.45;1708966;83;25923;-77
2022/02/14 06:46:55;;;;;;;38.65;19.70;;;;;;;0.37;73.90;100644.08;1707646;83;27459;-77
2022/02/14 06:49:21;;;;;;;42.08;19.98;;;;;;;0.39;73.86;100642.16;1705540;83;25830;-77
2022/02/14 06:51:47;;;;;;;40.25;20.75;;;;;;;0.42;73.95;100648.52;1697295;81;25835;-76
2022/02/14 06:54:14;;;;;;;41.25;20.30;;;;;;;0.46;74.03;100647.31;1704381;81;26678;-76
2022/02/14 06:56:40;;;;;;;40.92;19.73;;;;;;;0.47;74.10;100645.05;1706643;83;26098;-76
2022/02/14 06:59:06;;;;;;;38.38;18.80;;;;;;;0.51;74.13;100643.84;1657025;85;27508;-76
2022/02/14 07:01:33;;;;;;;45.88;21.15;;;;;;;0.53;74.10;100649.83;1664620;85;26451;-77
2022/02/14 07:03:59;;;;;;;33.73;19.00;;;;;;;0.56;74.03;100655.69;1657733;85;25898;-76
2022/02/14 07:06:25;;;;;;;37.25;19.37;;;;;;;0.60;74.11;100654.48;1671997;83;25840;-77
2022/02/14 07:08:51;;;;;;;37.73;18.60;;;;;;;0.64;74.15;100653.77;1669927;85;25614;-77
2022/02/14 07:11:18;;;;;;;41.28;19.00;;;;;;;0.70;74.12;100654.59;1623936;86;27515;-77
2022/02/14 07:13:44;;;;;;;42.93;19.27;;;;;;;0.73;74.08;100653.02;1643988;86;25923;-77
2022/02/14 07:16:11;;;;;;;42.23;21.05;;;;;;;0.77;74.04;100657.92;1644670;85;25907;-77
2022/02/14 07:18:37;;;;;;;56.83;21.48;;;;;;;0.81;74.00;100658.53;1646615;86;26044;-76
2022/02/14 07:21:04;;;;;;;44.08;20.15;;;;;;;0.84;73.83;100662.22;1654973;85;25831;-77
2022/02/14 07:23:30;;;;;;;40.08;19.73;;;;;;;0.87;73.76;100660.67;1663751;85;27497;-76
2022/02/14 07:25:56;;;;;;;44.25;21.52;;;;;;;0.90;73.62;100653.00;1674278;84;25807;-77
2022/02/14 07:28:23;;;;;;;42.73;20.25;;;;;;;0.93;73.62;100656.22;1677575;84;25881;-76
2022/02/14 07:30:49;;;;;;;45.50;20.88;;;;;;;0.97;73.61;100650.20;1676475;84;26382;-76
2022/02/14 07:33:15;;;;;;;42.75;19.80;;;;;;;1.00;73.50;100658.73;1661894;85;25848;-76
2022/02/14 07:35:41;;;;;;;45.40;21.05;;;;;;;1.04;73.34;100650.91;1677942;84;27529;-76
2022/02/14 07:38:08;;;;;;;51.00;23.12;;;;;;;1.09;73.39;100651.36;1649387;86;25809;-76
2022/02/14 07:40:35;;;;;;;40.48;20.08;;;;;;;1.15;73.28;100642.12;1649935;86;25720;-77
2022/02/14 07:43:01;;;;;;;41.90;20.75;;;;;;;1.19;73.23;100639.59;1660465;85;26529;-76
2022/02/14 07:45:28;;;;;;;37.28;19.30;;;;;;;1.25;73.10;100644.35;1649600;86;25766;-76
2022/02/14 07:47:55;;;;;;;40.75;19.57;;;;;;;1.31;73.08;100651.28;1701922;83;27486;-77
2022/02/14 07:50:23;;;;;;;41.45;21.35;;;;;;;1.36;72.96;100646.47;1702888;83;26193;-77
2022/02/14 07:52:52;;;;;;;48.17;21.87;;;;;;;1.42;73.13;100647.75;1707830;83;25480;-76
2022/02/14 07:55:18;;;;;;;43.42;21.70;;;;;;;1.47;73.01;100642.94;1709234;83;26534;-77
2022/02/14 07:57:44;;;;;;;39.13;19.05;;;;;;;1.51;73.10;100641.25;1707681;83;25885;-76
2022/02/14 08:00:12;;;;;;;36.13;19.37;;;;;;;1.57;72.87;100639.88;1700742;83;27475;-77
2022/02/14 08:02:40;;;;;;;40.17;19.87;;;;;;;1.64;72.76;100641.05;1709225;83;25794;-77
2022/02/14 08:05:08;;;;;;;37.15;18.95;;;;;;;1.68;72.80;100632.38;1709045;83;25871;-76
2022/02/14 08:07:34;;;;;;;37.67;19.00;;;;;;;1.76;72.77;100635.20;1705245;83;25845;-77
2022/02/14 08:10:00;;;;;;;43.58;22.25;;;;;;;1.80;72.40;100626.89;1707510;83;26020;-76
2022/02/14 08:12:27;;;;;;;40.58;20.57;;;;;;;1.88;72.25;100626.26;1706304;83;27459;-77
2022/02/14 08:14:53;;;;;;;42.90;19.92;;;;;;;1.95;72.69;100629.55;1702065;83;26544;-77
2022/02/14 08:17:19;;;;;;;37.70;19.90;;;;;;;2.01;72.40;100629.02;1706325;83;25915;-77
2022/02/14 08:19:45;;;;;;;39.88;19.82;;;;;;;2.06;71.92;100624.67;1705988;83;25851;-76
2022/02/14 08:22:13;;;;;;;46.33;20.32;;;;;;;2.11;71.78;100627.76;1707750;83;25772;-76
2022/02/14 08:24:39;;;;;;;37.20;19.60;;;;;;;2.17;72.03;100623.27;1703756;83;26924;-76
2022/02/14 08:27:06;;;;;;;41.53;19.42;;;;;;;2.23;71.68;100627.53;1706725;81;26502;-75
2022/02/14 08:29:32;;;;;;;40.40;20.12;;;;;;;2.28;71.56;100624.02;1710054;83;25981;-76
2022/02/14 08:31:58;;;;;;;36.33;19.45;;;;;;;2.35;71.44;100624.33;1702280;83;26771;-76
2022/02/14 08:34:25;;;;;;;39.27;21.12;;;;;;;2.41;71.38;100622.94;1706504;83;25829;-76
2022/02/14 08:36:51;;;;;;;39.20;18.73;;;;;;;2.50;71.44;100626.11;1704096;83;27707;-77
2022/02/14 08:39:18;;;;;;;39.40;19.77;;;;;;;2.57;71.29;100626.73;1708227;83;25749;-76
2022/02/14 08:41:46;;;;;;;35.38;20.37;;;;;;;2.64;71.13;100627.88;1706586;83;25815;-77
2022/02/14 08:44:12;;;;;;;36.23;18.00;;;;;;;2.71;71.07;100626.38;1707366;83;25851;-76
2022/02/14 08:46:39;;;;;;;39.88;20.02;;;;;;;2.78;70.91;100629.31;1703078;83;25845;-77
2022/02/14 08:49:05;;;;;;;43.25;19.62;;;;;;;2.86;70.85;100626.81;1708425;83;27474;-76
2022/02/14 08:51:32;;;;;;;38.23;19.95;;;;;;;2.92;70.78;100621.81;1705168;83;25825;-76
2022/02/14 08:53:59;;;;;;;45.30;17.85;;;;;;;3.00;70.77;100619.79;1707488;82;25760;-77
2022/02/14 08:56:25;;;;;;;39.13;19.15;;;;;;;3.06;70.38;100619.23;1706087;83;25847;-76
2022/02/14 08:58:51;;;;;;;40.48;18.32;;;;;;;3.13;70.46;100620.36;1702677;83;25807;-77
2022/02/14 09:01:18;;;;;;;36.45;18.80;;;;;;;3.21;70.34;100615.20;1710358;83;28340;-76
2022/02/14 09:03:45;;;;;;;38.63;17.95;;;;;;;3.28;70.41;100608.86;1712423;81;25920;-77
2022/02/14 09:06:12;;;;;;;40.52;19.40;;;;;;;3.38;70.12;100616.33;1651308;85;26012;-76
2022/02/14 09:08:39;;;;;;;36.75;18.12;;;;;;;3.42;70.10;100611.91;1652828;84;25842;-76
2022/02/14 09:11:05;;;;;;;37.03;18.67;;;;;;;3.50;70.22;100612.06;1650768;86;25859;-76
2022/02/14 09:13:36;;;;;;;34.45;17.95;;;;;;;3.58;70.12;100607.38;1673140;84;27539;-76
2022/02/14 09:16:05;;;;;;;38.98;18.23;;;;;;;3.64;69.78;100604.15;1659877;85;25868;-76
2022/02/14 09:18:36;;;;;;;36.53;19.02;;;;;;;3.71;69.72;100606.11;1707128;83;25886;-77
2022/02/14 09:21:05;;;;;;;31.35;17.77;;;;;;;3.77;69.69;100597.58;1708143;83;26643;-77
2022/02/14 09:23:33;;;;;;;29.02;17.50;;;;;;;3.82;69.56;100593.18;1707373;83;25744;-76
2022/02/14 09:26:00;;;;;;;30.52;17.60;;;;;;;3.86;69.50;100595.41;1705153;83;27620;-75
2022/02/14 09:28:26;;;;;;;38.67;17.60;;;;;;;3.89;69.47;100588.98;1704977;83;26059;-77
2022/02/14 09:30:54;;;;;;;35.45;18.62;;;;;;;3.95;69.30;100587.08;1699184;83;25903;-77
2022/02/14 09:33:21;;;;;;;36.60;19.35;;;;;;;4.01;69.51;100582.52;1709202;83;26548;-78
2022/02/14 09:35:49;;;;;;;34.27;17.73;;;;;;;4.06;69.56;100580.28;1706639;83;25856;-78
2022/02/14 09:38:15;;;;;;;33.45;18.48;;;;;;;4.11;69.25;100580.66;1703102;83;27469;-77
2022/02/14 09:40:42;;;;;;;29.90;16.90;;;;;;;4.17;68.87;100581.91;1710537;81;25895;-78
2022/02/14 09:43:13;;;;;;;34.65;18.52;;;;;;;4.24;69.06;100579.83;1723835;81;26107;-77
2022/02/14 09:45:40;;;;;;;;;;;;;;;4.29;69.22;100585.55;1724111;81;25936;-78
2022/02/14 09:48:10;;;;;;;26.57;15.93;;;;;;;4.34;68.89;100579.80;1725220;81;25313;-78
2022/02/14 09:50:38;;;;;;;28.47;16.87;;;;;;;4.37;68.92;100579.00;1726067;81;27451;-79
2022/02/14 09:53:08;;;;;;;28.77;16.80;;;;;;;4.42;68.41;100574.59;1724803;81;26129;-77
2022/02/14 09:55:37;;;;;;;35.80;18.48;;;;;;;4.47;68.63;100574.47;1734392;81;26530;-76
2022/02/14 09:58:06;;;;;;;34.78;17.82;;;;;;;4.53;68.52;100569.89;1731705;81;26613;-76
2022/02/14 10:00:34;;;;;;;34.30;16.55;;;;;;;4.59;68.48;100570.66;1726135;81;25982;-76
2022/02/14 10:03:16;;;;;;;35.73;19.02;;;;;;;4.61;68.39;100567.84;1715662;81;27655;-76
2022/02/14 10:05:50;;;;;;;35.90;18.15;;;;;;;4.65;68.42;100563.91;1701896;81;25746;-76
2022/02/14 10:08:29;;;;;;;29.30;16.62;;;;;;;4.68;67.92;100564.42;1705640;83;25956;-76
2022/02/14 10:11:18;;;;;;;33.45;17.77;;;;;;;4.73;67.81;100565.83;1709522;83;26628;-76
2022/02/14 10:13:50;;;;;;;32.50;17.50;;;;;;;4.76;67.85;100566.34;1652239;86;26438;-76
2022/02/14 10:16:14;;;;;;;37.58;18.60;;;;;;;4.79;67.74;100568.68;1703016;83;27546;-76
2022/02/14 10:18:42;;;;;;;37.23;19.73;;;;;;;4.82;67.18;100556.94;1699074;83;25906;-76
2022/02/14 10:21:22;;;;;;;35.23;18.65;;;;;;;4.88;67.95;100558.50;1698363;82;25968;-77
2022/02/14 10:24:02;;;;;;;34.53;17.67;;;;;;;4.91;67.89;100557.36;1696287;83;26186;-77
2022/02/14 10:26:33;;;;;;;28.83;17.77;;;;;;;4.94;67.63;100552.58;1697478;83;25825;-76
2022/02/14 10:29:20;;;;;;;29.90;16.45;;;;;;;4.98;67.48;100551.80;1698059;83;27647;-76
2022/02/14 10:31:53;;;;;;;34.43;18.48;;;;;;;5.01;67.35;100544.84;1700924;83;26312;-77
2022/02/14 10:34:24;;;;;;;34.15;17.52;;;;;;;5.06;67.30;100552.70;1697345;83;25810;-76
2022/02/14 10:36:51;;;;;;;29.65;17.42;;;;;;;5.13;67.61;100548.43;1695876;83;27063;-76
2022/02/14 10:39:26;;;;;;;33.20;16.57;;;;;;;5.20;67.88;100538.87;1695759;82;25744;-76
2022/02/14 10:42:06;;;;;;;29.65;17.27;;;;;;;5.27;67.32;100544.41;1701324;83;27432;-77
2022/02/14 10:47:33;;;;;;;28.32;17.25;;;;;;;5.38;67.29;100529.56;1696727;83;25400;-76
2022/02/14 10:50:18;;;;;;;31.70;17.62;;;;;;;5.43;67.25;100524.11;1695495;83;26741;-76
2022/02/14 10:52:52;;;;;;;30.72;17.55;;;;;;;5.49;67.48;100522.67;1694893;82;25751;-77
2022/02/14 10:55:26;;;;;;;33.18;17.73;;;;;;;5.56;67.49;100533.50;1698352;83;28307;-77
2022/02/14 10:57:55;;;;;;;28.80;15.60;;;;;;;5.61;67.08;100528.53;1699032;83;25996;-76
2022/02/14 11:00:30;;;;;;;34.45;16.25;;;;;;;5.65;66.87;100524.57;1696217;83;26729;-76
2022/02/14 11:03:01;;;;;;;29.55;18.07;;;;;;;5.71;66.77;100520.80;1696066;83;25860;-75
2022/02/14 11:05:29;;;;;;;32.73;16.45;;;;;;;5.77;66.98;100520.67;1698125;83;26472;-76
2022/02/14 11:07:56;;;;;;;32.45;15.55;;;;;;;5.84;66.69;100519.91;1698716;83;28251;-76
2022/02/14 11:10:23;;;;;;;32.48;16.20;;;;;;;5.87;66.59;100513.45;1696051;83;25824;-76
2022/02/14 11:12:55;;;;;;;27.13;16.17;;;;;;;5.92;66.62;100507.97;1696757;83;25822;-76
2022/02/14 11:15:26;;;;;;;31.57;15.60;;;;;;;5.98;66.92;100512.69;1698834;83;25867;-76
2022/02/14 11:18:03;;;;;;;28.67;16.00;;;;;;;6.06;66.70;100504.73;1698355;83;26387;-77
2022/02/14 11:20:29;;;;;;;27.22;16.12;;;;;;;6.10;66.70;100501.25;1708471;82;27453;-76